Moree Mo, New South Wales

1:29 AM EST on August 23, 2014 (GMT +1000)
Moree | Change Station
CLOSE
Current Station
Airport
Location: Moree Airport, NSW,
Elevation: 699 ft
Nearby Weather Stations

Elev 699 ft 29.50 °S, 149.85 °E | Updated 29 minutes ago

Clear
Clear
54 °F
Feels Like 54 °F
N
7
Wind Variable Wind from East

Today
High -- | Low -- °F
--% Chance of Precip.
Yesterday
High -- | Low -- °F
Precip. -- in
6:26 AM 5:40 PM
Waning Crescent, 8% visible
Pressure 30.27 in
Visibility 6.2 miles
Clouds
Dew Point 50 °F
Humidity 88%
Rainfall 0.00 in
Snow Depth Not available.
UV Not available.
Pollen Not available.
Air Quality Not available.
Flu Activity Not available.
METAR YMOR 221500Z AUTO 09006KT 9999 // NCD 12/10 Q1025

More Conditions Fewer Conditions

Pressure 30.27 in
Visibility 6.2 miles
Clouds
Dew Point 50 °F
Humidity 88%
Rainfall 0.00 in
Snow Depth Not available.
UV Not available.
Pollen Not available.
Air Quality Not available.
Flu Activity Not available.
METAR YMOR 221500Z AUTO 09006KT 9999 // NCD 12/10 Q1025

More Conditions Fewer Conditions

10-Day Weather Forecast

Almanac

Astronomy

Aug. 23, 2014 Rise Set
Actual Time 6:26 AM EST 5:40 PM EST
Civil Twilight 6:01 AM EST 6:05 PM EST
Nautical Twilight 5:34 AM EST 6:33 PM EST
Astronomical Twilight 5:06 AM EST 7:00 PM EST
Moon 4:32 AM EST (8/23) 3:43 PM EST (8/23)
Length of Visible Light 12h 03m
Length of Day
11h 14m
Tomorrow will be 1m 35s longer.
Waning Crescent, 8% of the Moon is Illuminated
Aug 22
Waning Crescent
Aug 25
New
Sep 2
First Quarter
Sep 8
Full
Sep 15
Last Quarter

Yesterday's Extremes

Country Highs Country Lows

Community

WunderPhotos

Upload Photos

1,746,187 photos uploaded!

WunderBlogs® & News

Nearby

Snow Depth

Not available.

Earthquake Activity

City Distance Mag. Time & Date
No recent earthquake activity has been reported nearby.
Minimum magnitude displayed is 2.5.

Coastal Water Temperatures

Place Temperature
No Stations Reporting

Nearby Weather Stations